Time;durP1;ratioP1;P1;durP2;ratioP2;P2;SDS_P1;SDS_P2;PMS_P1;PMS_P2;Temp;Humidity;BMP_temperature;BMP_pressure;BME280_temperature;BME280_humidity;BME280_pressure;Samples;Min_cycle;Max_cycle;Signal;HPM_P1;HPM_P2
2022/07/17 00:00:25;;;;;;;;;;;22.90;77.70;;;;;;5074687;28;20333;-64
2022/07/17 00:02:50;;;;;;;;;;;22.70;77.70;;;;;;5076022;28;19959;-63
2022/07/17 00:05:16;;;;;;;;;;;23.10;77.80;;;;;;5093214;28;19964;-64
2022/07/17 00:07:41;;;;;;;;;;;22.80;77.60;;;;;;5094117;28;19920;-63
2022/07/17 00:10:07;;;;;;;;;;;22.90;77.70;;;;;;5075361;28;19920;-64
2022/07/17 00:12:33;;;;;;;;;;;22.90;77.50;;;;;;5075744;28;19965;-63
2022/07/17 00:14:58;;;;;;;;;;;22.80;77.70;;;;;;5094057;28;20277;-63
2022/07/17 00:17:24;;;;;;;;;;;22.60;77.40;;;;;;5093081;28;20021;-64
2022/07/17 00:19:50;;;;;;;;;;;22.90;77.70;;;;;;5093638;28;20389;-63
2022/07/17 00:22:15;;;;;;;;;;;22.80;77.30;;;;;;5078123;28;19920;-63
2022/07/17 00:24:41;;;;;;;;;;;22.80;77.60;;;;;;5075586;28;20273;-63
2022/07/17 00:27:06;;;;;;;;;;;23.00;77.60;;;;;;5068683;28;19977;-65
2022/07/17 00:29:32;;;;;;;;;;;22.60;77.30;;;;;;5077006;28;19920;-63
2022/07/17 00:31:58;;;;;;;;;;;23.40;77.80;;;;;;5079346;28;19976;-64
2022/07/17 00:34:23;;;;;;;;;;;22.70;77.60;;;;;;5062881;28;20412;-63
2022/07/17 00:36:49;;;;;;;;;;;22.30;77.10;;;;;;5096654;28;20046;-63
2022/07/17 00:39:14;;;;;;;;;;;22.70;77.50;;;;;;5079330;28;19923;-63
2022/07/17 00:41:40;;;;;;;;;;;22.70;77.40;;;;;;5097392;28;19924;-63
2022/07/17 00:44:07;;;;;;;;;;;22.70;77.50;;;;;;5062570;28;19920;-63
2022/07/17 00:46:32;;;;;;;;;;;22.50;77.40;;;;;;5079560;28;19920;-63
2022/07/17 00:48:58;;;;;;;;;;;22.60;77.40;;;;;;5077508;28;19924;-64
2022/07/17 00:51:23;;;;;;;;;;;22.70;77.20;;;;;;5096907;28;19973;-63
2022/07/17 00:53:49;;;;;;;;;;;22.80;77.50;;;;;;5078954;28;19924;-63
2022/07/17 00:56:15;;;;;;;;;;;22.60;77.60;;;;;;5078583;28;19919;-63
2022/07/17 00:58:41;;;;;;;;;;;22.70;77.50;;;;;;5096370;28;19927;-66
2022/07/17 01:01:06;;;;;;;;;;;22.70;77.40;;;;;;5079150;28;20392;-64
2022/07/17 01:03:32;;;;;;;;;;;22.60;77.50;;;;;;5070769;28;19927;-66
2022/07/17 01:05:57;;;;;;;;;;;22.70;77.60;;;;;;5075526;28;19920;-64
2022/07/17 01:08:23;;;;;;;;;;;22.50;77.20;;;;;;5075774;28;19927;-63
2022/07/17 01:10:49;;;;;;;;;;;22.50;77.40;;;;;;5077296;28;19920;-64
2022/07/17 01:13:14;;;;;;;;;;;22.60;77.30;;;;;;5097205;28;19920;-63
2022/07/17 01:15:40;;;;;;;;;;;22.60;77.50;;;;;;5078759;28;20432;-63
2022/07/17 01:18:07;;;;;;;;;;;22.90;77.60;;;;;;5061835;28;20347;-64
2022/07/17 01:20:32;;;;;;;;;;;22.70;77.70;;;;;;5076696;28;19967;-63
2022/07/17 01:22:58;;;;;;;;;;;22.50;77.40;;;;;;5096951;28;20379;-63
2022/07/17 01:25:23;;;;;;;;;;;22.50;77.40;;;;;;5096994;28;19920;-64
2022/07/17 01:27:49;;;;;;;;;;;22.40;77.30;;;;;;5095786;28;19926;-64
2022/07/17 01:30:15;;;;;;;;;;;22.40;77.30;;;;;;5095094;28;19965;-63
2022/07/17 01:32:41;;;;;;;;;;;22.70;77.20;;;;;;5058394;28;19943;-63
2022/07/17 01:35:07;;;;;;;;;;;22.40;77.50;;;;;;5061782;28;20034;-64
2022/07/17 01:37:32;;;;;;;;;;;22.40;77.30;;;;;;5078687;28;19920;-63
2022/07/17 01:39:58;;;;;;;;;;;22.40;77.40;;;;;;5095455;28;19931;-64
2022/07/17 01:42:24;;;;;;;;;;;22.30;77.20;;;;;;5077534;28;20007;-63
2022/07/17 01:44:50;;;;;;;;;;;22.50;77.50;;;;;;5095191;28;19920;-63
2022/07/17 01:47:15;;;;;;;;;;;22.40;77.30;;;;;;5078201;28;19920;-64
2022/07/17 01:49:45;;;;;;;;;;;22.50;77.50;;;;;;5078136;28;19920;-63
2022/07/17 01:52:10;;;;;;;;;;;22.40;76.20;;;;;;5059402;28;20029;-65
2022/07/17 01:54:36;;;;;;;;;;;22.60;77.60;;;;;;5077373;28;19970;-64
2022/07/17 01:57:02;;;;;;;;;;;22.50;77.50;;;;;;5077229;28;19920;-64
2022/07/17 01:59:27;;;;;;;;;;;22.50;77.50;;;;;;5077718;28;19931;-63
2022/07/17 02:01:53;;;;;;;;;;;22.40;77.50;;;;;;5094864;28;19927;-64
2022/07/17 02:04:18;;;;;;;;;;;22.40;77.50;;;;;;5077635;28;20270;-63
2022/07/17 02:06:44;;;;;;;;;;;22.50;77.30;;;;;;5077788;28;19926;-63
2022/07/17 02:09:10;;;;;;;;;;;22.50;77.60;;;;;;5095581;28;19927;-63
2022/07/17 02:11:35;;;;;;;;;;;22.40;77.40;;;;;;5077323;28;19928;-63
2022/07/17 02:14:01;;;;;;;;;;;22.40;77.50;;;;;;5076254;28;19990;-64
2022/07/17 02:16:26;;;;;;;;;;;22.30;77.30;;;;;;5095119;28;20422;-63
2022/07/17 02:18:52;;;;;;;;;;;22.30;77.30;;;;;;5077526;28;19920;-63
2022/07/17 02:21:17;;;;;;;;;;;22.40;77.30;;;;;;5077247;28;19993;-63
2022/07/17 02:23:43;;;;;;;;;;;22.20;77.30;;;;;;5094467;28;20006;-63
2022/07/17 02:26:09;;;;;;;;;;;22.20;77.20;;;;;;5095326;28;19924;-64
2022/07/17 02:28:35;;;;;;;;;;;22.30;77.50;;;;;;5095389;28;19919;-63
2022/07/17 02:31:01;;;;;;;;;;;22.30;77.10;;;;;;5095688;28;19920;-63
2022/07/17 02:33:26;;;;;;;;;;;22.00;77.00;;;;;;5076587;28;19927;-64
2022/07/17 02:35:52;;;;;;;;;;;22.20;77.20;;;;;;5076506;28;19967;-65
2022/07/17 02:38:17;;;;;;;;;;;22.20;77.20;;;;;;5076460;28;20328;-63
2022/07/17 02:40:43;;;;;;;;;;;22.20;77.20;;;;;;5095186;28;19962;-63
2022/07/17 02:43:09;;;;;;;;;;;22.50;77.30;;;;;;5059979;28;19982;-63
2022/07/17 02:45:35;;;;;;;;;;;22.10;77.20;;;;;;5076338;28;20460;-64
2022/07/17 02:48:00;;;;;;;;;;;22.10;77.20;;;;;;5095385;28;19970;-64
2022/07/17 02:50:26;;;;;;;;;;;22.30;77.40;;;;;;5076891;28;19969;-63
2022/07/17 02:52:52;;;;;;;;;;;22.20;77.20;;;;;;5093949;28;20038;-65
2022/07/17 02:55:17;;;;;;;;;;;22.30;77.40;;;;;;5093926;28;19931;-63
2022/07/17 02:57:43;;;;;;;;;;;22.30;77.30;;;;;;5075871;28;19924;-63
2022/07/17 03:00:10;;;;;;;;;;;22.30;78.20;;;;;;5059993;28;20393;-63
2022/07/17 03:02:35;;;;;;;;;;;22.20;77.20;;;;;;5094657;28;20392;-64
2022/07/17 03:05:01;;;;;;;;;;;22.30;77.40;;;;;;5093870;28;19920;-63
2022/07/17 03:07:27;;;;;;;;;;;22.20;77.30;;;;;;5094039;28;20348;-63
2022/07/17 03:09:52;;;;;;;;;;;22.20;77.40;;;;;;5094899;28;20369;-63
2022/07/17 03:12:18;;;;;;;;;;;22.40;77.30;;;;;;5060185;28;20340;-63
2022/07/17 03:14:43;;;;;;;;;;;22.30;77.40;;;;;;5091989;28;20408;-63
2022/07/17 03:17:09;;;;;;;;;;;22.00;77.20;;;;;;5075351;28;19920;-63
2022/07/17 03:19:35;;;;;;;;;;;22.30;77.50;;;;;;5076402;28;19920;-64
2022/07/17 03:22:00;;;;;;;;;;;22.50;77.20;;;;;;5094432;28;19920;-63
2022/07/17 03:24:26;;;;;;;;;;;22.10;77.30;;;;;;5093867;28;19927;-63
2022/07/17 03:26:51;;;;;;;;;;;22.00;77.20;;;;;;5093805;28;20285;-64
2022/07/17 03:29:17;;;;;;;;;;;22.10;77.00;;;;;;5072049;28;19927;-64
2022/07/17 03:31:43;;;;;;;;;;;22.00;77.10;;;;;;5075528;28;19920;-63
2022/07/17 03:34:09;;;;;;;;;;;21.90;77.40;;;;;;5075998;28;19927;-63
2022/07/17 03:36:34;;;;;;;;;;;22.00;77.30;;;;;;5075397;28;20284;-63
2022/07/17 03:39:00;;;;;;;;;;;22.20;77.60;;;;;;5093144;28;20290;-64
2022/07/17 03:41:25;;;;;;;;;;;22.20;77.40;;;;;;5059718;28;19966;-63
2022/07/17 03:43:51;;;;;;;;;;;22.20;77.50;;;;;;5088623;28;20246;-64
2022/07/17 03:46:17;;;;;;;;;;;22.00;77.20;;;;;;5094056;28;20331;-64
2022/07/17 03:48:43;;;;;;;;;;;22.00;77.40;;;;;;5093304;28;20370;-63
2022/07/17 03:51:09;;;;;;;;;;;22.40;77.80;;;;;;5094163;28;19927;-64
2022/07/17 03:53:34;;;;;;;;;;;22.00;77.40;;;;;;5094291;28;19920;-63
2022/07/17 03:56:00;;;;;;;;;;;22.20;77.30;;;;;;5076584;28;20307;-63
2022/07/17 03:58:25;;;;;;;;;;;22.00;77.40;;;;;;5074929;28;20265;-64
2022/07/17 04:00:51;;;;;;;;;;;22.30;77.60;;;;;;5057468;28;19993;-64
2022/07/17 04:03:17;;;;;;;;;;;22.10;77.30;;;;;;5075580;28;20056;-64
2022/07/17 04:05:42;;;;;;;;;;;22.40;77.70;;;;;;5093871;28;19997;-63
2022/07/17 04:08:08;;;;;;;;;;;22.10;77.40;;;;;;5093516;28;19928;-65
2022/07/17 04:10:35;;;;;;;;;;;22.10;77.50;;;;;;5092815;28;19920;-63
2022/07/17 04:13:01;;;;;;;;;;;22.20;77.60;;;;;;5093744;28;19926;-64
2022/07/17 04:18:10;;;;;;;;;;;22.40;76.80;;;;;;5094057;28;19926;-64
2022/07/17 04:20:36;;;;;;;;;;;22.20;77.30;;;;;;5090766;28;20433;-63
2022/07/17 04:23:02;;;;;;;;;;;22.10;77.40;;;;;;5073427;28;20035;-63
2022/07/17 04:25:27;;;;;;;;;;;22.00;77.40;;;;;;5079545;28;19967;-63
2022/07/17 04:27:53;;;;;;;;;;;22.20;77.50;;;;;;5058713;28;19924;-65
2022/07/17 04:30:18;;;;;;;;;;;22.20;77.30;;;;;;5074944;28;19973;-64
2022/07/17 04:32:44;;;;;;;;;;;22.10;77.40;;;;;;5092933;28;19920;-64
2022/07/17 04:35:09;;;;;;;;;;;22.10;77.60;;;;;;5092441;28;20355;-63
2022/07/17 04:37:35;;;;;;;;;;;22.30;77.60;;;;;;5094193;28;20014;-63
2022/07/17 04:40:01;;;;;;;;;;;22.20;77.60;;;;;;5075036;28;19920;-63
2022/07/17 04:42:26;;;;;;;;;;;22.30;77.60;;;;;;5072881;28;19920;-63
2022/07/17 04:44:52;;;;;;;;;;;22.30;77.80;;;;;;5094109;28;20284;-63
2022/07/17 04:47:17;;;;;;;;;;;21.90;77.50;;;;;;5093425;28;19930;-63
2022/07/17 04:49:43;;;;;;;;;;;22.20;77.80;;;;;;5092848;28;19927;-63
2022/07/17 04:52:09;;;;;;;;;;;22.30;77.70;;;;;;5092423;28;19920;-63
2022/07/17 04:54:34;;;;;;;;;;;22.50;77.90;;;;;;5092873;28;19927;-63
2022/07/17 04:57:00;;;;;;;;;;;22.30;77.70;;;;;;5092973;28;19920;-63
2022/07/17 04:59:25;;;;;;;;;;;22.40;77.80;;;;;;5093148;28;19926;-63
2022/07/17 05:01:51;;;;;;;;;;;22.40;77.80;;;;;;5075345;28;19926;-63
2022/07/17 05:04:17;;;;;;;;;;;22.30;77.90;;;;;;5074039;28;19920;-63
2022/07/17 05:06:42;;;;;;;;;;;22.30;77.80;;;;;;5075244;28;19955;-63
2022/07/17 05:09:08;;;;;;;;;;;22.30;77.90;;;;;;5093821;28;19924;-63
2022/07/17 05:11:33;;;;;;;;;;;22.40;77.80;;;;;;5093316;28;19920;-65
2022/07/17 05:13:59;;;;;;;;;;;22.30;78.00;;;;;;5073600;28;20430;-63
2022/07/17 05:16:25;;;;;;;;;;;22.10;77.50;;;;;;5077366;28;20418;-63
2022/07/17 05:18:50;;;;;;;;;;;22.30;77.70;;;;;;5078556;28;19995;-63
2022/07/17 05:21:16;;;;;;;;;;;22.40;77.90;;;;;;5078123;28;20285;-63
2022/07/17 05:23:42;;;;;;;;;;;22.30;78.00;;;;;;5095530;28;19919;-63
2022/07/17 05:26:07;;;;;;;;;;;22.00;77.40;;;;;;5096661;28;19928;-63
2022/07/17 05:28:33;;;;;;;;;;;22.30;78.00;;;;;;5096356;28;19920;-63
2022/07/17 05:30:58;;;;;;;;;;;22.60;77.80;;;;;;5078772;28;19973;-63
2022/07/17 05:33:24;;;;;;;;;;;22.20;77.80;;;;;;5077905;28;19927;-63
2022/07/17 05:35:50;;;;;;;;;;;22.50;78.20;;;;;;5095835;28;19920;-63
2022/07/17 05:38:15;;;;;;;;;;;22.40;77.90;;;;;;5078389;28;19934;-63
2022/07/17 05:40:41;;;;;;;;;;;22.30;78.10;;;;;;5078268;28;20300;-63
2022/07/17 05:43:07;;;;;;;;;;;22.50;78.10;;;;;;5096597;28;19926;-63
2022/07/17 05:45:33;;;;;;;;;;;22.30;77.70;;;;;;5092927;28;20421;-63
2022/07/17 05:47:58;;;;;;;;;;;22.30;77.90;;;;;;5076350;28;19921;-63
2022/07/17 05:50:24;;;;;;;;;;;22.40;78.00;;;;;;5063400;28;19920;-63
2022/07/17 05:52:49;;;;;;;;;;;22.40;78.00;;;;;;5095320;28;19920;-63
2022/07/17 05:55:15;;;;;;;;;;;22.60;78.10;;;;;;5076550;28;19973;-64
2022/07/17 05:57:41;;;;;;;;;;;22.60;77.90;;;;;;5096107;28;19927;-63
2022/07/17 06:00:06;;;;;;;;;;;22.50;78.00;;;;;;5095507;28;20381;-64
2022/07/17 06:02:32;;;;;;;;;;;22.70;77.60;;;;;;5094542;28;19924;-63
2022/07/17 06:04:58;;;;;;;;;;;22.90;77.80;;;;;;5095684;28;19924;-64
2022/07/17 06:07:23;;;;;;;;;;;23.00;77.40;;;;;;5059669;28;19945;-63
2022/07/17 06:09:49;;;;;;;;;;;23.40;77.20;;;;;;5078089;28;20053;-63
2022/07/17 06:12:15;;;;;;;;;;;23.10;77.00;;;;;;5078072;28;19927;-63
2022/07/17 06:14:41;;;;;;;;;;;23.30;77.00;;;;;;5077630;28;19920;-63
2022/07/17 06:17:06;;;;;;;;;;;23.60;77.00;;;;;;5071413;28;19927;-63
2022/07/17 06:19:32;;;;;;;;;;;23.80;76.90;;;;;;5095664;28;20003;-63
2022/07/17 06:21:57;;;;;;;;;;;23.70;76.50;;;;;;5096225;28;19924;-63
2022/07/17 06:24:23;;;;;;;;;;;23.90;76.70;;;;;;5094572;28;20331;-63
2022/07/17 06:26:50;;;;;;;;;;;23.90;76.40;;;;;;5094724;28;19926;-63
2022/07/17 06:29:16;;;;;;;;;;;23.90;76.20;;;;;;5095050;28;19956;-63
2022/07/17 06:31:41;;;;;;;;;;;23.90;76.10;;;;;;5095703;28;19920;-63
2022/07/17 06:34:07;;;;;;;;;;;23.80;76.90;;;;;;5077615;28;20381;-63
2022/07/17 06:36:33;;;;;;;;;;;24.10;75.90;;;;;;5076299;28;19920;-63
2022/07/17 06:38:58;;;;;;;;;;;24.20;75.90;;;;;;5095012;28;20020;-63
2022/07/17 06:41:24;;;;;;;;;;;24.40;75.70;;;;;;5095387;28;19982;-63
2022/07/17 06:43:49;;;;;;;;;;;24.50;75.70;;;;;;5076977;28;20327;-63
2022/07/17 06:46:15;;;;;;;;;;;24.60;75.20;;;;;;5075930;28;19920;-63
2022/07/17 06:48:41;;;;;;;;;;;24.30;75.50;;;;;;5094937;28;19920;-63
2022/07/17 06:51:06;;;;;;;;;;;24.30;75.10;;;;;;5095009;28;19919;-63
2022/07/17 06:53:32;;;;;;;;;;;24.40;75.60;;;;;;5076869;28;19920;-63
2022/07/17 06:55:57;;;;;;;;;;;24.40;75.60;;;;;;5093633;28;19924;-63
2022/07/17 06:58:23;;;;;;;;;;;24.20;75.40;;;;;;5094569;28;20369;-63
2022/07/17 07:00:49;;;;;;;;;;;24.60;75.90;;;;;;5092674;28;20299;-63
2022/07/17 07:03:14;;;;;;;;;;;24.40;75.70;;;;;;5075135;28;19920;-63
2022/07/17 07:05:40;;;;;;;;;;;24.10;75.70;;;;;;5093451;28;19965;-64
2022/07/17 07:08:05;;;;;;;;;;;24.30;75.70;;;;;;5094763;28;20018;-63
2022/07/17 07:10:31;;;;;;;;;;;24.30;76.00;;;;;;5076538;28;19920;-63
2022/07/17 07:12:56;;;;;;;;;;;24.10;75.70;;;;;;5076025;28;19954;-63
2022/07/17 07:15:23;;;;;;;;;;;24.20;76.00;;;;;;5094419;28;19945;-63
2022/07/17 07:17:49;;;;;;;;;;;24.20;76.00;;;;;;5075724;28;19970;-64
2022/07/17 07:20:15;;;;;;;;;;;24.20;76.00;;;;;;5075927;28;19998;-63
2022/07/17 07:22:40;;;;;;;;;;;24.30;76.00;;;;;;5093806;28;19920;-63
2022/07/17 07:25:06;;;;;;;;;;;24.20;76.10;;;;;;5094403;28;19962;-63
2022/07/17 07:27:32;;;;;;;;;;;24.30;75.80;;;;;;5075495;28;19920;-63
2022/07/17 07:29:58;;;;;;;;;;;24.50;76.10;;;;;;5094564;28;19931;-63
2022/07/17 07:32:23;;;;;;;;;;;24.20;75.90;;;;;;5075876;28;19943;-66
2022/07/17 07:34:49;;;;;;;;;;;24.30;76.20;;;;;;5076834;28;20366;-62
2022/07/17 07:37:14;;;;;;;;;;;24.20;76.00;;;;;;5093440;28;20002;-63
2022/07/17 07:39:40;;;;;;;;;;;24.40;76.30;;;;;;5074873;28;19919;-63
2022/07/17 07:42:07;;;;;;;;;;;24.20;76.00;;;;;;5093933;28;19927;-63
2022/07/17 07:44:32;;;;;;;;;;;24.30;76.40;;;;;;5093806;28;19919;-63
2022/07/17 07:46:58;;;;;;;;;;;24.40;76.30;;;;;;5094435;28;19966;-63
2022/07/17 07:49:24;;;;;;;;;;;24.40;76.30;;;;;;5093183;28;19981;-64
2022/07/17 07:51:49;;;;;;;;;;;24.40;76.10;;;;;;5094334;28;19965;-63
2022/07/17 07:54:15;;;;;;;;;;;24.10;76.20;;;;;;5093465;28;19966;-62
2022/07/17 07:56:41;;;;;;;;;;;24.40;76.30;;;;;;5094290;28;19920;-62
2022/07/17 07:59:06;;;;;;;;;;;24.50;76.40;;;;;;5092939;28;19920;-63
2022/07/17 08:01:32;;;;;;;;;;;24.30;76.20;;;;;;5076022;28;19920;-62
2022/07/17 08:03:57;;;;;;;;;;;24.40;76.40;;;;;;5093686;28;20346;-63
2022/07/17 08:06:23;;;;;;;;;;;24.30;76.20;;;;;;5091683;28;20041;-64
2022/07/17 08:08:49;;;;;;;;;;;24.30;76.30;;;;;;5084123;28;19924;-64
2022/07/17 08:11:15;;;;;;;;;;;24.40;76.20;;;;;;5085031;28;20285;-70
2022/07/17 08:13:41;;;;;;;;;;;24.40;76.60;;;;;;5072185;28;19927;-62
2022/07/17 08:16:07;;;;;;;;;;;24.20;76.10;;;;;;5078177;28;19920;-63
2022/07/17 08:18:32;;;;;;;;;;;24.40;76.50;;;;;;5083389;28;19920;-68
2022/07/17 08:20:58;;;;;;;;;;;24.60;76.40;;;;;;5090805;28;19964;-63
2022/07/17 08:23:23;;;;;;;;;;;24.40;76.10;;;;;;5075424;28;19920;-65
2022/07/17 08:25:49;;;;;;;;;;;24.80;76.30;;;;;;5079227;28;20317;-65
2022/07/17 08:28:15;;;;;;;;;;;24.90;76.40;;;;;;5077100;28;19920;-64
2022/07/17 08:30:40;;;;;;;;;;;25.10;76.20;;;;;;5092510;28;19920;-66
2022/07/17 08:33:07;;;;;;;;;;;24.90;75.80;;;;;;5093812;28;20070;-63
2022/07/17 08:35:33;;;;;;;;;;;25.10;75.90;;;;;;5075574;28;20010;-63
2022/07/17 08:38:01;;;;;;;;;;;25.30;75.70;;;;;;5074563;28;19967;-63
2022/07/17 08:40:28;;;;;;;;;;;25.20;75.40;;;;;;5091141;28;19928;-68
2022/07/17 08:42:54;;;;;;;;;;;25.30;75.30;;;;;;5092617;28;19920;-74
2022/07/17 08:45:20;;;;;;;;;;;25.10;75.00;;;;;;5093767;28;19927;-63
2022/07/17 08:47:46;;;;;;;;;;;25.50;74.70;;;;;;5075520;28;19920;-63
2022/07/17 08:50:11;;;;;;;;;;;25.50;74.80;;;;;;5075768;28;19963;-64
2022/07/17 08:52:38;;;;;;;;;;;25.70;74.80;;;;;;5095516;28;19923;-63
2022/07/17 08:55:04;;;;;;;;;;;25.30;74.50;;;;;;5076873;28;19919;-62
2022/07/17 08:57:29;;;;;;;;;;;25.40;74.00;;;;;;5062186;28;19966;-63
2022/07/17 08:59:55;;;;;;;;;;;25.60;74.10;;;;;;5096550;28;19920;-63
2022/07/17 09:02:21;;;;;;;;;;;25.40;73.80;;;;;;5094154;28;19946;-64
2022/07/17 09:04:56;;;;;;;;;;;25.40;73.70;;;;;;5059161;28;19928;-63
2022/07/17 09:07:21;;;;;;;;;;;25.70;72.50;;;;;;5058893;28;20062;-63
2022/07/17 09:09:50;;;;;;;;;;;25.70;73.90;;;;;;5043500;28;20018;-63
2022/07/17 09:12:16;;;;;;;;;;;25.50;72.40;;;;;;5074437;28;19919;-65
2022/07/17 09:14:42;;;;;;;;;;;25.80;73.70;;;;;;5096110;28;19927;-65
2022/07/17 09:17:08;;;;;;;;;;;25.70;73.40;;;;;;5079014;28;19927;-63
2022/07/17 09:19:34;;;;;;;;;;;25.60;73.90;;;;;;5078670;28;19924;-63
2022/07/17 09:22:04;;;;;;;;;;;25.80;73.80;;;;;;5078275;28;19927;-65
2022/07/17 09:24:41;;;;;;;;;;;25.60;72.20;;;;;;5095954;28;20281;-64
2022/07/17 09:27:06;;;;;;;;;;;25.40;72.00;;;;;;5090455;28;19959;-63
2022/07/17 09:29:32;;;;;;;;;;;25.60;73.10;;;;;;5078594;28;20430;-63
2022/07/17 09:31:58;;;;;;;;;;;25.70;73.30;;;;;;5095966;28;19920;-65
2022/07/17 09:34:23;;;;;;;;;;;25.50;73.30;;;;;;5095725;28;19920;-65
2022/07/17 09:37:01;;;;;;;;;;;25.70;72.90;;;;;;5078540;28;19926;-63
2022/07/17 09:39:34;;;;;;;;;;;25.70;72.00;;;;;;5096346;28;19920;-63
2022/07/17 09:41:59;;;;;;;;;;;25.70;72.20;;;;;;5095597;28;20301;-63
2022/07/17 09:44:25;;;;;;;;;;;25.50;73.20;;;;;;5094389;28;19920;-63
2022/07/17 09:46:50;;;;;;;;;;;25.60;73.00;;;;;;5078404;28;19920;-63
2022/07/17 09:49:16;;;;;;;;;;;25.70;73.10;;;;;;5076450;28;19962;-63
2022/07/17 09:51:42;;;;;;;;;;;25.30;72.60;;;;;;5075719;28;20292;-63
2022/07/17 09:54:10;;;;;;;;;;;25.40;73.10;;;;;;5094774;28;20420;-63
2022/07/17 09:56:37;;;;;;;;;;;25.50;71.80;;;;;;5095033;28;20369;-62
2022/07/17 09:59:04;;;;;;;;;;;25.50;73.00;;;;;;5094025;28;19920;-62
2022/07/17 10:01:30;;;;;;;;;;;25.60;73.10;;;;;;5094992;28;20444;-63
2022/07/17 10:03:56;;;;;;;;;;;25.60;73.20;;;;;;5060773;28;20061;-63
2022/07/17 10:06:22;;;;;;;;;;;25.70;72.80;;;;;;5059917;28;19920;-63
2022/07/17 10:08:47;;;;;;;;;;;25.40;73.00;;;;;;5077673;28;19931;-66
2022/07/17 10:11:15;;;;;;;;;;;25.70;72.80;;;;;;5095607;28;19919;-63
2022/07/17 10:13:42;;;;;;;;;;;25.60;73.10;;;;;;5095106;28;19920;-63
2022/07/17 10:16:07;;;;;;;;;;;25.80;73.30;;;;;;5094999;28;19924;-63
2022/07/17 10:18:34;;;;;;;;;;;25.80;72.90;;;;;;5092348;28;20259;-63
2022/07/17 10:21:08;;;;;;;;;;;25.50;73.00;;;;;;5094916;28;20328;-62
2022/07/17 10:23:34;;;;;;;;;;;25.70;71.70;;;;;;5084138;28;19928;-63
2022/07/17 10:26:00;;;;;;;;;;;25.80;73.10;;;;;;5068659;28;20272;-64
2022/07/17 10:28:37;;;;;;;;;;;25.60;72.70;;;;;;5063407;28;20458;-64
2022/07/17 10:31:03;;;;;;;;;;;25.80;73.40;;;;;;5094768;28;19920;-64
2022/07/17 10:33:29;;;;;;;;;;;25.70;72.80;;;;;;5085096;28;19927;-65
2022/07/17 10:35:54;;;;;;;;;;;25.60;73.20;;;;;;5081913;28;20752;-64
2022/07/17 10:38:21;;;;;;;;;;;25.80;73.30;;;;;;5089892;28;19935;-64
2022/07/17 10:40:47;;;;;;;;;;;25.70;73.60;;;;;;5079976;28;20289;-66
2022/07/17 10:43:12;;;;;;;;;;;25.60;73.00;;;;;;5059928;28;19928;-64
2022/07/17 10:45:44;;;;;;;;;;;25.80;73.80;;;;;;5075061;28;20307;-66
2022/07/17 10:48:13;;;;;;;;;;;25.80;72.80;;;;;;5078744;28;19920;-64
2022/07/17 10:50:40;;;;;;;;;;;25.90;72.80;;;;;;5074552;28;20431;-64
2022/07/17 10:53:06;;;;;;;;;;;26.00;74.10;;;;;;5074642;28;20342;-64
2022/07/17 10:55:32;;;;;;;;;;;26.00;73.90;;;;;;5093085;28;19970;-64
2022/07/17 10:57:58;;;;;;;;;;;25.70;74.30;;;;;;5094975;28;20011;-71
2022/07/17 11:00:24;;;;;;;;;;;25.90;74.50;;;;;;5072210;28;20348;-64
2022/07/17 11:02:49;;;;;;;;;;;25.80;74.40;;;;;;5059590;28;20363;-64
2022/07/17 11:05:16;;;;;;;;;;;25.90;74.30;;;;;;5058872;28;19928;-64
2022/07/17 11:07:48;;;;;;;;;;;25.70;74.10;;;;;;5067939;28;19970;-65
2022/07/17 11:10:14;;;;;;;;;;;25.80;73.60;;;;;;5093234;28;19927;-69
2022/07/17 11:12:40;;;;;;;;;;;25.80;74.80;;;;;;5071599;28;19920;-64
2022/07/17 11:15:06;;;;;;;;;;;26.00;74.90;;;;;;5092016;28;20387;-64
2022/07/17 11:17:31;;;;;;;;;;;25.70;74.40;;;;;;5076974;28;19920;-64
2022/07/17 11:19:58;;;;;;;;;;;25.80;74.50;;;;;;5072188;28;20084;-64
2022/07/17 11:22:29;;;;;;;;;;;26.10;75.30;;;;;;5076157;28;20029;-66
2022/07/17 11:24:55;;;;;;;;;;;26.00;74.10;;;;;;5070044;28;19928;-65
2022/07/17 11:27:21;;;;;;;;;;;26.00;75.00;;;;;;5057767;28;19966;-66
2022/07/17 11:29:47;;;;;;;;;;;25.90;75.20;;;;;;5068785;28;19924;-64
2022/07/17 11:32:13;;;;;;;;;;;26.00;75.20;;;;;;5076015;28;19947;-64
2022/07/17 11:34:38;;;;;;;;;;;26.10;74.90;;;;;;5086428;28;19917;-64
2022/07/17 11:37:05;;;;;;;;;;;25.80;75.00;;;;;;5066994;28;19927;-64
2022/07/17 11:39:45;;;;;;;;;;;25.60;75.10;;;;;;5075636;28;19920;-68
2022/07/17 11:42:12;;;;;;;;;;;26.30;74.20;;;;;;5093332;28;20254;-69
2022/07/17 11:44:37;;;;;;;;;;;26.10;75.60;;;;;;5092980;28;20297;-64
2022/07/17 11:47:03;;;;;;;;;;;26.20;75.60;;;;;;5092900;28;19927;-67
2022/07/17 11:49:32;;;;;;;;;;;26.10;75.30;;;;;;5094027;28;19927;-65
2022/07/17 11:51:59;;;;;;;;;;;26.00;74.00;;;;;;5058413;28;19930;-69
2022/07/17 11:54:25;;;;;;;;;;;26.30;75.80;;;;;;5055844;28;19927;-64
2022/07/17 11:56:55;;;;;;;;;;;26.10;75.50;;;;;;5039913;28;19963;-65
2022/07/17 11:59:25;;;;;;;;;;;26.00;74.20;;;;;;5078529;28;19960;-65
2022/07/17 12:01:51;;;;;;;;;;;26.10;74.30;;;;;;5059472;28;20003;-68
2022/07/17 12:04:17;;;;;;;;;;;25.80;75.10;;;;;;5079192;28;19920;-64
2022/07/17 12:06:43;;;;;;;;;;;26.00;75.60;;;;;;5069977;28;19920;-64
2022/07/17 12:09:09;;;;;;;;;;;26.00;75.70;;;;;;5091708;28;20305;-65
2022/07/17 12:11:47;;;;;;;;;;;25.90;75.40;;;;;;5075575;28;19972;-65
2022/07/17 12:14:13;;;;;;;;;;;26.00;74.40;;;;;;5074423;28;20015;-66
2022/07/17 12:16:39;;;;;;;;;;;26.10;75.40;;;;;;5075416;28;20010;-65
2022/07/17 12:19:08;;;;;;;;;;;25.80;75.60;;;;;;5075406;28;19920;-66
2022/07/17 12:21:46;;;;;;;;;;;26.00;74.50;;;;;;5091167;28;20259;-64
2022/07/17 12:24:17;;;;;;;;;;;26.00;74.50;;;;;;5074524;28;20322;-65
2022/07/17 12:26:43;;;;;;;;;;;26.10;76.10;;;;;;5071751;28;19924;-65
2022/07/17 12:29:09;;;;;;;;;;;26.10;75.90;;;;;;5076842;28;20388;-64
2022/07/17 12:31:34;;;;;;;;;;;25.90;75.70;;;;;;5090975;28;20369;-65
2022/07/17 12:34:00;;;;;;;;;;;25.70;75.50;;;;;;5069077;28;19953;-66
2022/07/17 12:36:25;;;;;;;;;;;25.90;75.70;;;;;;5074965;28;20292;-65
2022/07/17 12:38:51;;;;;;;;;;;26.10;76.00;;;;;;5078500;28;19966;-64
2022/07/17 12:41:17;;;;;;;;;;;25.90;75.80;;;;;;5097436;28;20381;-69
2022/07/17 12:43:43;;;;;;;;;;;25.80;75.90;;;;;;5081607;28;19924;-64
2022/07/17 12:46:08;;;;;;;;;;;25.80;75.70;;;;;;5096556;28;19967;-64
2022/07/17 12:48:35;;;;;;;;;;;26.00;75.80;;;;;;5079618;28;19920;-64
2022/07/17 12:51:01;;;;;;;;;;;25.60;75.90;;;;;;5096421;28;20014;-63
2022/07/17 12:53:26;;;;;;;;;;;25.90;75.90;;;;;;5078857;28;20124;-64
2022/07/17 12:55:52;;;;;;;;;;;25.60;75.80;;;;;;5086992;28;19924;-64
2022/07/17 12:58:17;;;;;;;;;;;25.90;76.00;;;;;;5082835;28;19928;-66
2022/07/17 13:00:43;;;;;;;;;;;25.70;76.10;;;;;;5076618;28;20290;-65
2022/07/17 13:03:09;;;;;;;;;;;25.80;75.90;;;;;;5060025;28;19978;-64
2022/07/17 13:05:34;;;;;;;;;;;26.20;76.40;;;;;;5083015;28;19923;-69
2022/07/17 13:08:00;;;;;;;;;;;26.20;76.40;;;;;;5076738;28;19973;-65
2022/07/17 13:10:26;;;;;;;;;;;26.00;76.10;;;;;;5058986;28;20012;-64
2022/07/17 13:12:51;;;;;;;;;;;26.10;76.20;;;;;;5067018;28;19920;-65
2022/07/17 13:15:17;;;;;;;;;;;25.90;76.20;;;;;;5079348;28;19924;-65
2022/07/17 13:17:43;;;;;;;;;;;26.00;76.10;;;;;;5061085;28;19927;-64
2022/07/17 13:20:09;;;;;;;;;;;26.00;76.00;;;;;;5042162;28;19926;-64
2022/07/17 13:22:35;;;;;;;;;;;25.90;75.70;;;;;;5069728;28;19927;-64
2022/07/17 13:25:01;;;;;;;;;;;25.80;76.20;;;;;;5077393;28;19924;-64
2022/07/17 13:27:26;;;;;;;;;;;25.90;76.30;;;;;;5087916;28;19926;-65
2022/07/17 13:29:52;;;;;;;;;;;25.90;76.30;;;;;;5084675;28;19927;-65
2022/07/17 13:32:17;;;;;;;;;;;25.90;76.30;;;;;;5089783;28;19920;-64
2022/07/17 13:34:43;;;;;;;;;;;25.90;76.30;;;;;;5066179;28;19920;-64
2022/07/17 13:37:09;;;;;;;;;;;26.00;76.30;;;;;;5084330;28;19926;-64
2022/07/17 13:39:35;;;;;;;;;;;26.00;76.40;;;;;;5081097;28;19920;-64
2022/07/17 13:42:00;;;;;;;;;;;25.80;76.50;;;;;;5078191;28;19927;-64
2022/07/17 13:44:26;;;;;;;;;;;25.80;76.30;;;;;;5076027;28;20015;-65
2022/07/17 13:46:52;;;;;;;;;;;25.70;76.20;;;;;;5076373;28;19927;-65
2022/07/17 13:49:17;;;;;;;;;;;26.00;76.60;;;;;;5076109;28;19927;-65
2022/07/17 13:51:43;;;;;;;;;;;26.20;76.60;;;;;;5077168;28;19944;-65
2022/07/17 13:54:08;;;;;;;;;;;25.90;76.60;;;;;;5061751;28;20366;-65
2022/07/17 13:56:34;;;;;;;;;;;25.80;76.50;;;;;;5094662;28;20411;-65
2022/07/17 13:59:00;;;;;;;;;;;25.90;76.70;;;;;;5071273;28;19919;-64
2022/07/17 14:01:26;;;;;;;;;;;25.80;76.60;;;;;;5077538;28;19975;-64
2022/07/17 14:03:52;;;;;;;;;;;25.80;76.80;;;;;;5093013;28;19920;-64
2022/07/17 14:06:18;;;;;;;;;;;26.00;76.60;;;;;;5068484;28;19919;-64
2022/07/17 14:08:43;;;;;;;;;;;25.90;76.70;;;;;;5075730;28;19924;-63
2022/07/17 14:11:12;;;;;;;;;;;26.10;76.70;;;;;;5095865;28;20011;-64